Time;durP1;ratioP1;P1;durP2;ratioP2;P2;SDS_P1;SDS_P2;PMS_P1;PMS_P2;Temp;Humidity;BMP_temperature;BMP_pressure;BME280_temperature;BME280_humidity;BME280_pressure;Samples;Min_cycle;Max_cycle;Signal;HPM_P1;HPM_P2
2021/03/15 00:00:21;;;;;;;4.65;3.42;;;2.70;99.90;;;;;;5070069;28;20208;-77
2021/03/15 00:02:51;;;;;;;4.13;3.00;;;2.70;99.90;;;;;;5070055;28;20206;-78
2021/03/15 00:05:19;;;;;;;3.28;2.72;;;2.70;99.90;;;;;;5070729;28;20200;-77
2021/03/15 00:07:45;;;;;;;6.25;3.47;;;2.60;99.90;;;;;;5070871;28;20204;-78
2021/03/15 00:10:13;;;;;;;4.75;3.28;;;2.50;99.90;;;;;;5069799;28;20215;-77
2021/03/15 00:12:41;;;;;;;4.55;3.50;;;2.40;99.90;;;;;;5070386;28;20207;-78
2021/03/15 00:15:09;;;;;;;4.18;3.60;;;2.40;99.90;;;;;;5070723;28;20200;-78
2021/03/15 00:17:35;;;;;;;3.47;3.05;;;2.40;99.90;;;;;;5070333;28;20225;-78
2021/03/15 00:20:01;;;;;;;4.25;3.20;;;2.30;99.90;;;;;;5069938;28;20670;-78
2021/03/15 00:22:28;;;;;;;2.95;2.75;;;2.30;99.90;;;;;;5070440;28;20224;-77
2021/03/15 00:24:55;;;;;;;3.60;3.30;;;2.20;99.90;;;;;;5070509;28;20230;-78
2021/03/15 00:27:21;;;;;;;4.75;3.47;;;2.20;99.90;;;;;;5070409;28;20204;-77
2021/03/15 00:29:47;;;;;;;4.93;3.75;;;2.20;99.90;;;;;;5069816;28;20205;-77
2021/03/15 00:32:13;;;;;;;3.15;2.85;;;2.20;99.90;;;;;;5070333;28;20220;-78
2021/03/15 00:34:39;;;;;;;5.38;3.15;;;2.20;99.90;;;;;;5070391;28;20200;-77
2021/03/15 00:37:07;;;;;;;5.00;3.33;;;2.10;99.90;;;;;;5070136;28;20717;-78
2021/03/15 00:39:34;;;;;;;3.47;3.10;;;2.10;99.90;;;;;;5070361;28;20204;-77
2021/03/15 00:42:00;;;;;;;11.73;3.75;;;2.10;99.90;;;;;;5070528;28;20228;-78
2021/03/15 00:44:26;;;;;;;6.05;3.65;;;2.00;99.90;;;;;;5069672;28;20349;-77
2021/03/15 00:46:53;;;;;;;4.95;3.63;;;2.10;99.90;;;;;;5070227;28;20253;-78
2021/03/15 00:49:19;;;;;;;4.60;3.15;;;2.00;99.90;;;;;;5070137;28;20212;-78
2021/03/15 00:51:46;;;;;;;3.25;2.92;;;2.00;99.90;;;;;;5070570;28;20260;-78
2021/03/15 00:54:12;;;;;;;3.47;3.15;;;2.00;99.90;;;;;;5071025;28;20200;-77
2021/03/15 00:56:39;;;;;;;4.13;3.63;;;2.00;99.90;;;;;;5070361;28;20220;-77
2021/03/15 00:59:05;;;;;;;3.45;3.08;;;2.00;99.90;;;;;;5070263;28;20326;-77
2021/03/15 01:01:32;;;;;;;7.05;3.28;;;1.90;99.90;;;;;;5069021;28;20236;-77
2021/03/15 01:03:58;;;;;;;4.05;3.45;;;1.80;99.90;;;;;;5068822;28;20212;-76
2021/03/15 01:06:24;;;;;;;3.90;3.55;;;1.70;99.90;;;;;;5068449;28;20197;-77
2021/03/15 01:08:50;;;;;;;5.13;3.28;;;1.70;99.90;;;;;;5068284;28;20248;-77
2021/03/15 01:11:17;;;;;;;4.95;3.50;;;1.70;99.90;;;;;;5068689;28;20236;-77
2021/03/15 01:13:44;;;;;;;4.57;3.05;;;1.70;99.90;;;;;;5070901;28;20208;-77
2021/03/15 01:16:10;;;;;;;3.67;3.20;;;1.70;99.90;;;;;;5074161;28;20216;-77
2021/03/15 01:18:36;;;;;;;3.80;3.30;;;1.70;99.90;;;;;;5073099;28;20204;-77
2021/03/15 01:21:03;;;;;;;5.38;3.60;;;1.60;99.90;;;;;;5073333;28;20256;-77
2021/03/15 01:23:30;;;;;;;4.10;3.70;;;1.60;99.90;;;;;;5072402;28;20219;-78
2021/03/15 01:25:56;;;;;;;4.88;3.05;;;1.60;99.90;;;;;;5073100;28;20668;-78
2021/03/15 01:28:22;;;;;;;3.88;3.30;;;1.60;99.90;;;;;;5072832;28;20737;-77
2021/03/15 01:30:50;;;;;;;4.07;3.13;;;1.50;99.90;;;;;;5071561;28;20289;-77
2021/03/15 01:33:16;;;;;;;6.00;3.10;;;1.50;99.90;;;;;;5072305;28;20197;-77
2021/03/15 01:35:43;;;;;;;5.00;3.45;;;1.50;99.90;;;;;;5072134;28;20618;-78
2021/03/15 01:38:10;;;;;;;4.53;3.22;;;1.50;99.90;;;;;;5072019;28;20225;-76
2021/03/15 01:40:38;;;;;;;3.65;3.28;;;1.40;99.90;;;;;;5071434;28;20700;-77
2021/03/15 01:43:05;;;;;;;4.75;3.40;;;1.40;99.90;;;;;;5072238;28;20208;-77
2021/03/15 01:45:32;;;;;;;4.18;3.40;;;1.40;99.90;;;;;;5071692;28;20212;-77
2021/03/15 01:48:02;;;;;;;4.60;3.70;;;1.40;99.90;;;;;;5072217;28;20201;-77
2021/03/15 01:50:28;;;;;;;4.75;3.42;;;1.30;99.90;;;;;;5071988;28;20201;-76
2021/03/15 01:52:56;;;;;;;3.80;3.40;;;1.30;99.90;;;;;;5073028;28;20273;-77
2021/03/15 01:55:23;;;;;;;3.38;3.03;;;1.30;99.90;;;;;;5073552;28;20208;-78
2021/03/15 01:57:50;;;;;;;5.50;3.40;;;1.30;99.90;;;;;;5073232;28;20224;-78
2021/03/15 02:00:19;;;;;;;3.60;3.25;;;1.30;99.90;;;;;;5073134;28;20230;-78
2021/03/15 02:02:51;;;;;;;5.35;3.83;;;1.30;99.90;;;;;;5072854;28;20393;-77
2021/03/15 02:05:18;;;;;;;5.35;3.38;;;1.30;99.90;;;;;;5073085;28;20664;-78
2021/03/15 02:07:45;;;;;;;5.00;4.38;;;1.30;99.90;;;;;;5073141;28;20601;-77
2021/03/15 02:10:12;;;;;;;6.32;3.35;;;1.40;99.90;;;;;;5070885;28;20262;-77
2021/03/15 02:12:55;;;;;;;4.80;3.40;;;1.50;99.90;;;;;;5071271;28;20209;-77
2021/03/15 02:15:27;;;;;;;7.60;3.83;;;1.60;99.90;;;;;;5071196;28;20203;-77
2021/03/15 02:18:02;;;;;;;5.85;3.78;;;1.70;99.90;;;;;;5071737;28;20224;-77
2021/03/15 02:20:51;;;;;;;8.63;3.33;;;1.70;99.90;;;;;;5071239;28;20200;-77
2021/03/15 02:23:22;;;;;;;4.10;3.45;;;1.80;99.90;;;;;;5072098;28;20204;-77
2021/03/15 02:26:14;;;;;;;4.53;3.50;;;1.80;99.90;;;;;;5071596;28;20583;-77
2021/03/15 02:29:21;;;;;;;6.00;3.67;;;1.80;99.90;;;;;;5070684;28;20200;-77
2021/03/15 02:32:12;;;;;;;4.38;3.50;;;1.80;99.90;;;;;;5071584;28;20266;-77
2021/03/15 02:34:58;;;;;;;3.83;3.25;;;1.80;99.90;;;;;;5071152;28;20204;-77
2021/03/15 02:37:30;;;;;;;5.88;3.55;;;1.80;99.90;;;;;;5071392;28;20269;-77
2021/03/15 02:40:03;;;;;;;7.28;3.95;;;1.80;99.90;;;;;;5070766;28;20208;-77
2021/03/15 02:42:31;;;;;;;5.43;3.50;;;1.80;99.90;;;;;;5071268;28;20469;-77
2021/03/15 02:44:58;;;;;;;10.43;3.95;;;1.80;99.90;;;;;;5071011;28;20212;-77
2021/03/15 02:47:27;;;;;;;6.35;4.25;;;1.80;99.90;;;;;;5071140;28;20622;-77
2021/03/15 02:49:59;;;;;;;7.85;3.30;;;1.80;99.90;;;;;;5070539;28;20231;-77
2021/03/15 02:52:27;;;;;;;9.75;3.85;;;1.70;99.90;;;;;;5070998;28;20258;-77
2021/03/15 02:54:55;;;;;;;4.93;3.72;;;1.70;99.90;;;;;;5070913;28;20208;-76
2021/03/15 02:57:22;;;;;;;5.20;3.70;;;1.70;99.90;;;;;;5073149;28;20430;-77
2021/03/15 02:59:51;;;;;;;5.80;3.58;;;1.70;99.90;;;;;;5072012;28;20544;-76
2021/03/15 03:02:18;;;;;;;6.30;3.13;;;1.70;99.90;;;;;;5072573;28;20228;-77
2021/03/15 03:04:47;;;;;;;5.70;3.80;;;1.70;99.90;;;;;;5073178;28;20203;-77
2021/03/15 03:07:16;;;;;;;4.05;3.65;;;1.60;99.90;;;;;;5073530;28;20559;-76
2021/03/15 03:09:44;;;;;;;4.13;3.45;;;1.70;99.90;;;;;;5071275;28;20204;-77
2021/03/15 03:12:13;;;;;;;6.13;3.70;;;1.70;99.90;;;;;;5070624;28;20227;-77
2021/03/15 03:14:41;;;;;;;6.35;3.40;;;1.70;99.90;;;;;;5069896;28;20207;-77
2021/03/15 03:17:09;;;;;;;6.43;3.95;;;1.70;99.90;;;;;;5070543;28;20723;-77
2021/03/15 03:19:36;;;;;;;4.95;3.47;;;1.70;99.90;;;;;;5069429;28;20204;-77
2021/03/15 03:22:04;;;;;;;5.53;3.20;;;1.80;99.90;;;;;;5070363;28;20224;-77
2021/03/15 03:24:32;;;;;;;3.88;3.38;;;1.90;99.90;;;;;;5069940;28;20672;-77
2021/03/15 03:26:59;;;;;;;7.85;3.25;;;1.90;99.90;;;;;;5071003;28;20193;-77
2021/03/15 03:29:27;;;;;;;6.75;3.38;;;1.90;99.90;;;;;;5070023;28;20250;-77
2021/03/15 03:31:55;;;;;;;5.75;3.80;;;1.90;99.90;;;;;;5070467;28;20255;-77
2021/03/15 03:34:22;;;;;;;6.47;3.03;;;1.90;99.90;;;;;;5070517;28;20574;-77
2021/03/15 03:36:48;;;;;;;6.30;3.03;;;1.90;99.90;;;;;;5068984;28;20212;-77
2021/03/15 03:39:14;;;;;;;3.70;3.30;;;1.90;99.90;;;;;;5069712;28;20737;-77
2021/03/15 03:41:41;;;;;;;5.50;2.95;;;1.90;99.90;;;;;;5069740;28;20231;-77
2021/03/15 03:44:09;;;;;;;6.18;2.90;;;1.90;99.90;;;;;;5070322;28;20204;-77
2021/03/15 03:46:35;;;;;;;5.82;2.97;;;1.90;99.90;;;;;;5069848;28;20204;-77
2021/03/15 03:49:04;;;;;;;5.05;3.50;;;1.80;99.90;;;;;;5069930;28;20196;-77
2021/03/15 03:51:37;;;;;;;5.07;3.30;;;1.90;99.90;;;;;;5070216;28;20220;-77
2021/03/15 03:54:10;;;;;;;3.67;3.10;;;1.90;99.90;;;;;;5070025;28;20226;-77
2021/03/15 03:56:41;;;;;;;2.97;2.65;;;1.90;99.90;;;;;;5069629;28;20240;-77
2021/03/15 03:59:10;;;;;;;4.25;3.05;;;1.90;99.90;;;;;;5069151;28;20660;-77
2021/03/15 04:01:41;;;;;;;2.92;2.50;;;1.90;99.90;;;;;;5069664;28;20225;-78
2021/03/15 04:04:10;;;;;;;9.50;3.33;;;1.90;99.90;;;;;;5070121;28;20655;-77
2021/03/15 04:06:39;;;;;;;4.55;3.40;;;1.90;99.90;;;;;;5069924;28;20193;-77
2021/03/15 04:09:12;;;;;;;3.60;2.95;;;1.90;99.90;;;;;;5069764;28;20671;-77
2021/03/15 04:11:42;;;;;;;4.30;2.95;;;2.00;99.90;;;;;;5069948;28;20247;-77
2021/03/15 04:14:13;;;;;;;3.80;2.78;;;2.00;99.90;;;;;;5070331;28;20205;-77
2021/03/15 04:16:41;;;;;;;7.68;2.92;;;2.00;99.90;;;;;;5069755;28;20228;-78
2021/03/15 04:19:09;;;;;;;3.88;2.45;;;2.00;99.90;;;;;;5069759;28;20207;-77
2021/03/15 04:21:38;;;;;;;3.45;2.80;;;2.00;99.90;;;;;;5069312;28;20231;-77
2021/03/15 04:24:07;;;;;;;6.97;3.20;;;2.10;99.90;;;;;;5069849;28;20208;-77
2021/03/15 04:26:34;;;;;;;3.00;2.80;;;2.00;99.90;;;;;;5069156;28;20250;-78
2021/03/15 04:29:01;;;;;;;6.43;3.03;;;2.10;99.90;;;;;;5069355;28;20211;-77
2021/03/15 04:31:29;;;;;;;3.83;2.58;;;2.10;99.90;;;;;;5069348;28;20216;-78
2021/03/15 04:33:56;;;;;;;5.53;3.15;;;2.10;99.90;;;;;;5070888;28;20209;-77
2021/03/15 04:36:23;;;;;;;4.32;3.10;;;2.10;99.90;;;;;;5075427;28;20296;-78
2021/03/15 04:38:51;;;;;;;7.40;3.70;;;2.10;99.90;;;;;;5070397;28;20219;-77
2021/03/15 04:41:18;;;;;;;4.60;3.20;;;2.10;99.90;;;;;;5076295;28;20228;-77
2021/03/15 04:43:48;;;;;;;5.03;3.00;;;2.10;99.90;;;;;;5070166;28;20216;-76
2021/03/15 04:46:16;;;;;;;4.20;3.67;;;2.10;99.90;;;;;;5070141;28;20200;-77
2021/03/15 04:48:44;;;;;;;3.90;3.17;;;2.20;99.90;;;;;;5075224;28;20200;-79
2021/03/15 04:51:11;;;;;;;6.32;3.30;;;2.20;99.90;;;;;;5075458;28;20235;-78
2021/03/15 04:53:40;;;;;;;3.72;3.15;;;2.20;99.90;;;;;;5072976;28;20226;-77
2021/03/15 04:56:09;;;;;;;4.65;3.30;;;2.20;99.90;;;;;;5071985;28;20204;-76
2021/03/15 04:58:38;;;;;;;3.80;3.05;;;2.20;99.90;;;;;;5072703;28;20204;-77
2021/03/15 05:01:06;;;;;;;3.30;2.88;;;2.30;99.90;;;;;;5075335;28;20239;-76
2021/03/15 05:03:33;;;;;;;6.93;3.25;;;2.30;99.90;;;;;;5075150;28;20693;-76
2021/03/15 05:06:01;;;;;;;3.30;3.00;;;2.30;99.90;;;;;;5074235;28;20197;-77
2021/03/15 05:08:32;;;;;;;4.18;2.58;;;2.30;99.90;;;;;;5072474;28;20193;-77
2021/03/15 05:11:00;;;;;;;4.10;3.67;;;2.30;99.90;;;;;;5072293;28;20224;-76
2021/03/15 05:13:27;;;;;;;3.50;3.20;;;2.30;99.90;;;;;;5072248;28;20196;-78
2021/03/15 05:15:53;;;;;;;4.70;3.00;;;2.40;99.90;;;;;;5073116;28;20213;-77
2021/03/15 05:18:21;;;;;;;4.05;2.97;;;2.40;99.90;;;;;;5073375;28;20224;-76
2021/03/15 05:20:48;;;;;;;7.63;3.10;;;2.40;99.90;;;;;;5073031;28;20228;-76
2021/03/15 05:23:15;;;;;;;5.25;3.50;;;2.40;99.90;;;;;;5073464;28;20453;-76
2021/03/15 05:25:46;;;;;;;4.38;3.20;;;2.40;99.90;;;;;;5071312;28;20204;-75
2021/03/15 05:28:14;;;;;;;3.85;2.60;;;2.40;99.90;;;;;;5072394;28;20258;-76
2021/03/15 05:30:41;;;;;;;3.10;2.83;;;2.40;99.90;;;;;;5071904;28;20738;-76
2021/03/15 05:33:12;;;;;;;3.72;3.33;;;2.40;99.90;;;;;;5071993;28;20205;-76
2021/03/15 05:35:39;;;;;;;3.63;3.10;;;2.40;99.90;;;;;;5071971;28;20196;-75
2021/03/15 05:38:06;;;;;;;4.30;2.75;;;2.40;99.90;;;;;;5071831;28;20572;-76
2021/03/15 05:40:36;;;;;;;4.40;3.22;;;2.30;99.90;;;;;;5071768;28;20228;-77
2021/03/15 05:43:21;;;;;;;3.58;2.90;;;2.30;99.90;;;;;;5072818;28;20215;-76
2021/03/15 05:46:27;;;;;;;5.40;2.58;;;2.30;99.90;;;;;;5149296;22;20257;-70
2021/03/15 05:49:17;;;;;;;3.08;2.55;;;2.30;99.90;;;;;;5111614;28;20896;-71
2021/03/15 05:52:06;;;;;;;4.20;3.22;;;2.30;99.90;;;;;;5098744;28;20737;-71
2021/03/15 05:55:06;;;;;;;4.53;3.13;;;2.30;99.90;;;;;;5091492;28;20306;-71
2021/03/15 05:57:58;;;;;;;3.20;2.90;;;2.30;99.90;;;;;;5091267;28;20257;-70
2021/03/15 06:00:31;;;;;;;6.95;3.35;;;2.30;99.90;;;;;;5090455;28;20200;-72
2021/03/15 06:03:21;;;;;;;3.67;2.85;;;2.30;99.90;;;;;;5091749;28;20569;-71
2021/03/15 06:05:51;;;;;;;5.35;2.80;;;2.20;99.90;;;;;;5091626;28;20211;-72
2021/03/15 06:08:20;;;;;;;3.53;2.72;;;2.20;99.90;;;;;;5091076;28;20195;-70
2021/03/15 06:11:02;;;;;;;9.65;3.53;;;2.30;99.90;;;;;;5090755;28;20228;-72
2021/03/15 06:13:31;;;;;;;5.72;3.05;;;2.20;99.90;;;;;;5091010;28;20230;-71
2021/03/15 06:15:59;;;;;;;4.45;2.75;;;2.10;99.90;;;;;;5091414;28;20237;-71
2021/03/15 06:18:26;;;;;;;4.10;3.25;;;2.20;99.90;;;;;;5083697;28;20695;-71
2021/03/15 06:20:52;;;;;;;3.90;2.90;;;2.20;99.90;;;;;;5087513;28;20227;-70
2021/03/15 06:23:19;;;;;;;3.60;3.00;;;2.20;99.90;;;;;;5088104;28;20200;-71
2021/03/15 06:25:47;;;;;;;6.57;3.00;;;2.20;99.90;;;;;;5087704;28;20231;-72
2021/03/15 06:28:15;;;;;;;3.88;3.20;;;2.20;99.90;;;;;;5088218;28;20661;-72
2021/03/15 06:30:43;;;;;;;4.15;3.00;;;2.20;99.90;;;;;;5087351;28;20746;-73
2021/03/15 06:33:11;;;;;;;4.95;3.00;;;2.20;99.90;;;;;;5087957;28;20543;-71
2021/03/15 06:35:40;;;;;;;4.80;2.95;;;2.20;99.90;;;;;;5087398;28;20204;-72
2021/03/15 06:38:07;;;;;;;3.38;3.08;;;2.10;99.90;;;;;;5087547;28;20222;-72
2021/03/15 06:40:35;;;;;;;4.22;2.95;;;2.10;99.90;;;;;;5086786;28;20219;-71
2021/03/15 06:43:03;;;;;;;4.45;2.60;;;2.10;99.90;;;;;;5087242;28;20199;-72
2021/03/15 06:45:31;;;;;;;3.95;2.90;;;2.20;99.90;;;;;;5087381;28;20234;-71
2021/03/15 06:48:02;;;;;;;3.17;2.55;;;2.20;99.90;;;;;;5087100;28;20200;-72
2021/03/15 06:50:29;;;;;;;3.08;2.20;;;2.20;99.90;;;;;;5087047;28;20223;-71
2021/03/15 06:53:01;;;;;;;5.10;2.80;;;2.30;99.90;;;;;;5088107;28;20261;-71
2021/03/15 06:55:30;;;;;;;5.10;2.85;;;2.40;99.90;;;;;;5087571;28;20290;-72
2021/03/15 06:57:57;;;;;;;2.60;2.35;;;2.40;99.90;;;;;;5088086;28;20739;-71
2021/03/15 07:00:26;;;;;;;3.25;2.60;;;2.50;99.90;;;;;;5087065;28;20204;-71
2021/03/15 07:02:58;;;;;;;4.00;2.53;;;2.50;99.90;;;;;;5087906;28;20226;-71
2021/03/15 07:05:24;;;;;;;2.90;2.70;;;2.50;99.90;;;;;;5088028;28;20619;-72
2021/03/15 07:07:52;;;;;;;4.90;2.80;;;2.60;99.90;;;;;;5088442;28;20292;-71
2021/03/15 07:10:21;;;;;;;4.18;2.78;;;2.60;99.90;;;;;;5086358;28;20257;-70
2021/03/15 07:12:49;;;;;;;2.95;2.65;;;2.80;99.90;;;;;;5088442;28;20203;-72
2021/03/15 07:15:16;;;;;;;3.00;2.70;;;2.80;99.90;;;;;;5088298;28;20227;-72
2021/03/15 07:17:43;;;;;;;4.60;2.00;;;2.80;99.90;;;;;;5088017;28;20249;-72
2021/03/15 07:20:11;;;;;;;2.97;2.42;;;2.80;99.90;;;;;;5087988;28;20199;-72
2021/03/15 07:22:45;;;;;;;5.65;2.90;;;2.90;99.90;;;;;;5088844;28;20207;-71
2021/03/15 07:25:17;;;;;;;3.55;3.25;;;3.00;99.90;;;;;;5099232;28;20199;-71
2021/03/15 07:27:45;;;;;;;2.50;2.30;;;3.00;99.90;;;;;;5101244;28;20204;-72
2021/03/15 07:30:28;;;;;;;2.60;2.40;;;3.10;99.90;;;;;;5092238;28;20211;-72
2021/03/15 07:33:03;;;;;;;1.95;1.77;;;3.00;99.90;;;;;;5104861;27;20874;-71
2021/03/15 07:35:32;;;;;;;3.35;2.15;;;3.00;99.90;;;;;;5103278;28;20213;-71
2021/03/15 07:37:59;;;;;;;2.35;2.15;;;2.90;99.90;;;;;;5103847;28;20268;-71
2021/03/15 07:40:30;;;;;;;2.40;1.75;;;2.80;99.90;;;;;;5101202;28;20207;-71
2021/03/15 07:42:58;;;;;;;2.47;2.20;;;2.60;99.90;;;;;;5083629;28;20238;-70
2021/03/15 07:45:36;;;;;;;2.33;1.80;;;2.50;99.90;;;;;;5083168;28;20739;-71
2021/03/15 07:48:08;;;;;;;1.80;1.70;;;2.40;99.90;;;;;;5083568;28;20230;-71
2021/03/15 07:50:36;;;;;;;2.20;1.98;;;2.30;99.90;;;;;;5072384;28;20257;-71
2021/03/15 07:53:03;;;;;;;1.98;1.85;;;2.20;99.90;;;;;;5082807;28;20192;-71
2021/03/15 07:55:34;;;;;;;2.92;2.00;;;2.20;99.90;;;;;;5063683;28;20218;-71
2021/03/15 07:58:01;;;;;;;2.17;1.83;;;2.20;99.90;;;;;;5077544;28;20590;-71
2021/03/15 08:00:28;;;;;;;2.65;2.20;;;2.20;99.90;;;;;;5065046;28;20211;-71
2021/03/15 08:02:58;;;;;;;2.80;2.33;;;2.30;99.90;;;;;;5069534;28;20290;-71
2021/03/15 08:05:25;;;;;;;2.30;2.10;;;2.40;99.90;;;;;;5074967;28;20219;-72
2021/03/15 08:07:51;;;;;;;2.97;2.50;;;2.40;99.90;;;;;;5078677;28;20235;-71
2021/03/15 08:10:18;;;;;;;3.17;2.33;;;2.50;99.90;;;;;;5080244;28;20214;-72
2021/03/15 08:12:47;;;;;;;1.95;1.75;;;2.50;99.90;;;;;;5080676;28;21117;-72
2021/03/15 08:15:14;;;;;;;2.40;2.20;;;2.60;99.90;;;;;;5077356;28;20191;-70
2021/03/15 08:17:43;;;;;;;2.55;2.33;;;2.60;99.90;;;;;;5080107;28;20787;-71
2021/03/15 08:20:12;;;;;;;2.70;2.25;;;2.70;99.90;;;;;;5079342;28;20203;-70
2021/03/15 08:22:41;;;;;;;2.00;1.80;;;2.90;99.90;;;;;;5079189;28;20200;-71
2021/03/15 08:25:11;;;;;;;2.63;2.20;;;3.20;99.90;;;;;;5076510;28;20199;-71
2021/03/15 08:27:40;;;;;;;2.20;2.00;;;3.40;99.90;;;;;;5061325;28;20277;-71
2021/03/15 08:30:15;;;;;;;2.47;1.80;;;3.50;99.90;;;;;;5061327;28;20548;-71
2021/03/15 08:32:43;;;;;;;2.00;1.80;;;3.50;99.90;;;;;;5061263;28;20234;-71
2021/03/15 08:35:13;;;;;;;2.20;2.00;;;3.40;99.90;;;;;;5061784;28;20209;-72
2021/03/15 08:37:56;;;;;;;2.40;1.73;;;3.50;99.90;;;;;;5062017;28;20775;-71
2021/03/15 08:40:51;;;;;;;2.13;1.60;;;3.70;99.90;;;;;;5061542;28;20226;-72
2021/03/15 08:43:37;;;;;;;1.83;1.52;;;3.80;99.90;;;;;;5050660;28;20576;-71
2021/03/15 08:46:05;;;;;;;1.40;1.30;;;3.80;99.90;;;;;;5049011;28;20209;-71
2021/03/15 08:48:54;;;;;;;2.63;1.30;;;3.70;99.90;;;;;;5048391;28;20254;-71
2021/03/15 08:51:50;;;;;;;1.70;1.50;;;3.60;99.90;;;;;;5049040;28;20232;-71
2021/03/15 08:54:46;;;;;;;1.33;1.10;;;3.70;99.90;;;;;;5049202;28;20204;-71
2021/03/15 08:57:32;;;;;;;1.55;1.35;;;3.70;99.90;;;;;;5049631;28;20201;-71
2021/03/15 08:59:59;;;;;;;1.65;1.17;;;3.80;99.90;;;;;;5048232;28;20201;-71
2021/03/15 09:02:34;;;;;;;1.40;1.30;;;3.90;99.90;;;;;;5048424;28;20247;-71
2021/03/15 09:05:19;;;;;;;1.80;1.15;;;3.90;99.90;;;;;;5048742;28;20640;-72
2021/03/15 09:07:46;;;;;;;2.90;1.98;;;3.90;99.90;;;;;;5048330;28;20223;-70
2021/03/15 09:10:44;;;;;;;3.00;1.58;;;4.00;99.90;;;;;;5047793;28;20201;-72
2021/03/15 09:13:30;;;;;;;3.78;1.33;;;4.00;99.90;;;;;;5048871;28;20847;-71
2021/03/15 09:16:02;;;;;;;2.13;1.33;;;4.10;99.90;;;;;;5058848;28;20211;-71
2021/03/15 09:18:54;;;;;;;1.33;1.23;;;4.20;99.90;;;;;;5068915;28;20291;-72
2021/03/15 09:21:46;;;;;;;1.45;1.23;;;4.30;99.90;;;;;;5067855;28;20991;-72
2021/03/15 09:24:43;;;;;;;1.35;1.15;;;4.20;99.90;;;;;;5068513;28;20238;-72
2021/03/15 09:27:12;;;;;;;1.10;1.00;;;4.20;99.90;;;;;;5068328;28;20258;-71
2021/03/15 09:29:39;;;;;;;1.75;1.00;;;4.20;99.90;;;;;;5067157;28;20200;-71
2021/03/15 09:32:07;;;;;;;2.00;1.00;;;4.30;99.90;;;;;;5067462;28;20656;-72
2021/03/15 09:34:34;;;;;;;3.53;1.33;;;4.20;99.90;;;;;;5067304;28;20209;-71
2021/03/15 09:37:02;;;;;;;1.20;1.10;;;4.30;99.90;;;;;;5067651;28;20208;-71
2021/03/15 09:39:30;;;;;;;1.38;1.23;;;4.30;99.90;;;;;;5067377;28;20205;-71
2021/03/15 09:41:58;;;;;;;1.83;1.23;;;4.30;99.90;;;;;;5067765;28;20286;-71
2021/03/15 09:44:27;;;;;;;1.55;1.10;;;4.30;99.90;;;;;;5067552;28;20299;-71
2021/03/15 09:46:54;;;;;;;1.70;1.20;;;4.30;99.90;;;;;;5067475;28;20211;-72
2021/03/15 09:49:34;;;;;;;1.55;1.05;;;4.40;99.90;;;;;;5067006;28;20208;-71
2021/03/15 09:52:12;;;;;;;2.13;1.50;;;4.40;99.90;;;;;;5066339;28;20512;-69
2021/03/15 09:54:43;;;;;;;1.52;1.25;;;4.40;99.90;;;;;;5066104;28;20201;-70
2021/03/15 09:57:10;;;;;;;3.28;1.50;;;4.40;99.90;;;;;;5067001;28;20211;-70
2021/03/15 09:59:37;;;;;;;1.83;1.73;;;4.60;99.90;;;;;;5066553;28;20246;-69
2021/03/15 10:02:04;;;;;;;1.98;1.77;;;4.60;99.90;;;;;;5066971;28;20220;-70
2021/03/15 10:04:34;;;;;;;2.20;1.80;;;4.70;99.90;;;;;;5067273;28;20208;-70
2021/03/15 10:07:03;;;;;;;1.77;1.63;;;4.60;99.90;;;;;;5066995;28;20224;-70
2021/03/15 10:09:31;;;;;;;2.20;2.00;;;4.60;99.90;;;;;;5066558;28;20246;-69
2021/03/15 10:11:59;;;;;;;1.75;1.60;;;4.70;99.90;;;;;;5066935;28;20232;-70
2021/03/15 10:14:25;;;;;;;3.08;1.85;;;4.80;99.90;;;;;;5066236;28;20201;-70
2021/03/15 10:16:54;;;;;;;2.08;1.88;;;4.90;99.90;;;;;;5066534;28;20200;-69
2021/03/15 10:19:24;;;;;;;2.55;2.13;;;5.00;99.90;;;;;;5066540;28;20208;-71
2021/03/15 10:21:51;;;;;;;2.13;1.92;;;5.10;99.90;;;;;;5066210;28;20224;-70
2021/03/15 10:24:31;;;;;;;2.70;1.92;;;5.00;99.90;;;;;;5066098;28;20219;-70
2021/03/15 10:26:58;;;;;;;2.05;1.95;;;5.00;99.90;;;;;;5066581;28;20204;-70
2021/03/15 10:29:25;;;;;;;1.92;1.70;;;5.00;99.90;;;;;;5065661;28;20253;-70
2021/03/15 10:31:52;;;;;;;2.20;1.83;;;5.10;99.90;;;;;;5066298;28;20224;-69
2021/03/15 10:34:22;;;;;;;3.38;2.08;;;5.10;99.90;;;;;;5066697;28;20249;-71
2021/03/15 10:36:49;;;;;;;1.90;1.70;;;5.10;99.90;;;;;;5065677;28;20219;-71
2021/03/15 10:39:16;;;;;;;1.70;1.60;;;5.10;99.90;;;;;;5066126;28;20200;-71
2021/03/15 10:41:42;;;;;;;2.20;2.00;;;5.00;99.90;;;;;;5065803;28;20316;-69
2021/03/15 10:44:11;;;;;;;2.55;1.58;;;5.00;99.90;;;;;;5066057;28;20729;-70
2021/03/15 10:46:48;;;;;;;2.28;2.08;;;5.10;99.90;;;;;;5066047;28;20200;-71
2021/03/15 10:49:21;;;;;;;2.40;1.80;;;5.20;99.90;;;;;;5065073;28;20204;-70
2021/03/15 10:51:50;;;;;;;2.05;1.70;;;5.40;99.90;;;;;;5066088;28;20289;-71
2021/03/15 10:54:33;;;;;;;2.13;1.95;;;5.60;99.90;;;;;;5066631;28;20295;-69
2021/03/15 10:57:27;;;;;;;2.10;1.92;;;5.60;99.90;;;;;;5067159;28;20315;-70
2021/03/15 11:00:01;;;;;;;3.10;2.00;;;5.60;99.90;;;;;;5066961;28;20197;-71
2021/03/15 11:02:31;;;;;;;1.70;1.60;;;5.50;99.90;;;;;;5067963;28;20216;-70
2021/03/15 11:05:02;;;;;;;1.67;1.58;;;5.50;99.90;;;;;;5067126;28;20208;-71
2021/03/15 11:07:30;;;;;;;2.10;1.90;;;5.60;99.90;;;;;;5067098;28;20247;-71
2021/03/15 11:10:03;;;;;;;2.03;1.83;;;5.70;99.90;;;;;;5067550;28;20226;-70
2021/03/15 11:12:46;;;;;;;2.10;1.80;;;5.80;99.90;;;;;;5068543;28;20323;-70
2021/03/15 11:15:18;;;;;;;1.85;1.30;;;5.90;99.90;;;;;;5064186;28;20201;-72
2021/03/15 11:17:59;;;;;;;2.78;1.60;;;6.00;99.90;;;;;;5057989;28;20213;-72
2021/03/15 11:20:57;;;;;;;1.60;1.50;;;6.00;99.90;;;;;;5067337;28;20248;-73
2021/03/15 11:23:29;;;;;;;1.70;1.60;;;6.00;99.90;;;;;;5051879;28;20196;-72
2021/03/15 11:26:00;;;;;;;2.05;1.73;;;5.90;99.90;;;;;;5065056;28;20211;-71
2021/03/15 11:28:31;;;;;;;1.90;1.70;;;5.90;99.90;;;;;;5065678;28;20683;-71
2021/03/15 11:30:59;;;;;;;1.65;1.55;;;5.80;99.90;;;;;;5065411;28;20282;-71
2021/03/15 11:33:27;;;;;;;2.67;1.80;;;5.70;99.90;;;;;;5065657;28;20287;-70
2021/03/15 11:36:01;;;;;;;2.15;1.95;;;5.70;99.90;;;;;;5061294;28;20528;-70
2021/03/15 11:38:30;;;;;;;2.08;1.70;;;6.20;99.90;;;;;;5045542;28;20197;-71
2021/03/15 11:40:56;;;;;;;2.15;1.95;;;7.10;99.90;;;;;;5055602;28;20213;-71
2021/03/15 11:43:25;;;;;;;2.10;1.90;;;7.80;99.90;;;;;;5066436;28;20204;-72
2021/03/15 11:45:59;;;;;;;2.35;2.13;;;8.20;99.90;;;;;;5062362;28;20403;-72
2021/03/15 11:48:25;;;;;;;1.73;1.63;;;8.70;99.90;;;;;;5068075;28;20196;-70
2021/03/15 11:50:52;;;;;;;2.40;2.20;;;9.00;99.90;;;;;;5068393;28;20227;-71
2021/03/15 11:53:19;;;;;;;1.90;1.80;;;8.80;99.90;;;;;;5068448;28;20224;-71
2021/03/15 11:55:45;;;;;;;2.15;1.70;;;8.50;99.90;;;;;;5068473;28;20200;-69
2021/03/15 11:58:12;;;;;;;1.85;1.50;;;8.00;99.90;;;;;;5068195;28;20204;-72
2021/03/15 12:00:38;;;;;;;1.73;1.63;;;7.70;99.90;;;;;;5068191;28;20224;-70
2021/03/15 12:03:04;;;;;;;2.05;1.85;;;7.50;99.90;;;;;;5068195;28;20211;-71
2021/03/15 12:05:31;;;;;;;1.88;1.67;;;7.40;99.90;;;;;;5067973;28;20211;-72
2021/03/15 12:07:57;;;;;;;1.90;1.70;;;7.10;99.90;;;;;;5068117;28;20742;-72
2021/03/15 12:10:24;;;;;;;1.98;1.85;;;7.00;99.90;;;;;;5067910;28;20254;-72
2021/03/15 12:12:50;;;;;;;2.20;1.70;;;6.80;99.90;;;;;;5067876;28;20799;-71
2021/03/15 12:15:17;;;;;;;1.85;1.67;;;6.80;99.90;;;;;;5068490;28;20197;-71
2021/03/15 12:17:44;;;;;;;1.60;1.50;;;6.80;99.90;;;;;;5068977;28;20205;-72
2021/03/15 12:20:11;;;;;;;3.47;2.15;;;6.90;99.90;;;;;;5072081;28;20200;-71
2021/03/15 12:22:37;;;;;;;2.28;2.08;;;7.30;99.90;;;;;;5071794;28;20571;-72
2021/03/15 12:25:05;;;;;;;2.30;2.00;;;8.00;99.90;;;;;;5072498;28;20571;-72
2021/03/15 12:27:32;;;;;;;1.80;1.70;;;8.60;99.90;;;;;;5121887;22;20228;-75
2021/03/15 12:29:58;;;;;;;2.65;2.05;;;8.70;99.90;;;;;;5049353;28;20683;-74
2021/03/15 12:32:25;;;;;;;2.10;2.00;;;8.50;99.90;;;;;;5033213;28;20241;-74
2021/03/15 12:34:51;;;;;;;2.15;1.92;;;8.40;99.90;;;;;;5030807;28;20208;-74
2021/03/15 12:37:18;;;;;;;2.95;2.22;;;8.70;99.90;;;;;;5031084;28;20263;-75
2021/03/15 12:39:44;;;;;;;1.90;1.80;;;9.30;99.90;;;;;;5030852;28;20201;-75
2021/03/15 12:42:10;;;;;;;2.47;2.00;;;10.10;99.90;;;;;;5030999;28;20228;-75
2021/03/15 12:44:37;;;;;;;2.75;2.03;;;10.40;99.90;;;;;;5031345;28;20201;-74
2021/03/15 12:47:04;;;;;;;1.83;1.73;;;10.60;99.90;;;;;;5031065;28;20314;-75
2021/03/15 12:49:30;;;;;;;1.98;1.88;;;10.50;99.90;;;;;;5030659;28;20212;-75
2021/03/15 12:51:56;;;;;;;3.15;2.60;;;10.50;99.90;;;;;;5030965;28;20222;-75
2021/03/15 12:54:22;;;;;;;1.70;1.60;;;10.30;99.90;;;;;;5031167;28;20206;-74
2021/03/15 12:56:48;;;;;;;1.83;1.70;;;10.10;99.90;;;;;;5030773;28;20201;-74
2021/03/15 12:59:15;;;;;;;1.85;1.50;;;9.70;99.90;;;;;;5029949;28;20202;-76
2021/03/15 13:01:42;;;;;;;1.92;1.70;;;9.30;99.90;;;;;;5030710;28;20213;-76
2021/03/15 13:04:09;;;;;;;2.45;1.98;;;9.20;99.90;;;;;;5030724;28;20202;-76
2021/03/15 13:06:35;;;;;;;1.83;1.73;;;9.00;99.90;;;;;;5031104;28;20615;-75
2021/03/15 13:09:03;;;;;;;1.90;1.80;;;9.00;99.90;;;;;;5029943;28;20738;-75
2021/03/15 13:11:29;;;;;;;2.13;1.92;;;9.50;99.90;;;;;;5030271;28;20218;-75
2021/03/15 13:13:55;;;;;;;2.80;1.90;;;9.90;99.90;;;;;;5030606;28;20205;-75